Time;durP1;ratioP1;P1;durP2;ratioP2;P2;SDS_P1;SDS_P2;PMS_P1;PMS_P2;Temp;Humidity;BMP_temperature;BMP_pressure;BME280_temperature;BME280_humidity;BME280_pressure;Samples;Min_cycle;Max_cycle;Signal;HPM_P1;HPM_P2
2023/05/21 00:01:25;;;;;;;2.65;2.03;;;14.80;99.90;;;;;;5053369;28;20068;-72
2023/05/21 00:03:50;;;;;;;2.97;1.83;;;14.80;99.90;;;;;;5065067;28;20044;-72
2023/05/21 00:06:16;;;;;;;3.17;1.95;;;14.80;99.90;;;;;;5065530;28;20044;-72
2023/05/21 00:08:42;;;;;;;6.82;2.13;;;14.80;99.90;;;;;;5046194;28;20064;-72
2023/05/21 00:11:08;;;;;;;4.60;2.22;;;14.80;99.90;;;;;;5065675;28;20052;-72
2023/05/21 00:13:33;;;;;;;2.45;1.40;;;14.80;99.90;;;;;;5083660;28;20052;-72
2023/05/21 00:15:59;;;;;;;3.20;2.13;;;14.80;99.90;;;;;;5085567;28;20093;-73
2023/05/21 00:18:25;;;;;;;7.40;1.60;;;14.80;99.90;;;;;;5085834;28;20103;-72
2023/05/21 00:20:51;;;;;;;2.13;1.70;;;14.70;99.90;;;;;;5085824;28;20039;-72
2023/05/21 00:23:18;;;;;;;4.70;2.00;;;14.70;99.90;;;;;;5084240;28;20391;-73
2023/05/21 00:25:45;;;;;;;2.65;1.58;;;14.70;99.90;;;;;;5084776;28;20040;-72
2023/05/21 00:28:11;;;;;;;5.97;2.47;;;14.70;99.90;;;;;;5084167;28;20055;-72
2023/05/21 00:30:36;;;;;;;2.83;1.85;;;14.70;99.90;;;;;;5083668;28;20047;-73
2023/05/21 00:33:02;;;;;;;5.50;2.63;;;14.70;99.90;;;;;;5085099;28;20105;-72
2023/05/21 00:35:28;;;;;;;2.03;1.83;;;14.70;99.90;;;;;;5075360;28;20491;-72
2023/05/21 00:37:54;;;;;;;2.40;1.70;;;14.70;99.90;;;;;;5064119;28;20086;-72
2023/05/21 00:40:20;;;;;;;2.88;1.83;;;14.70;99.90;;;;;;5064442;28;20045;-72
2023/05/21 00:42:46;;;;;;;4.22;1.60;;;14.60;99.90;;;;;;5064508;28;20076;-72
2023/05/21 00:45:13;;;;;;;3.22;1.60;;;14.60;99.90;;;;;;5064677;28;20746;-72
2023/05/21 00:47:40;;;;;;;2.72;1.70;;;14.70;99.90;;;;;;5064203;28;20488;-72
2023/05/21 00:50:07;;;;;;;5.97;2.88;;;14.60;99.90;;;;;;5064795;28;20037;-72
2023/05/21 00:52:40;;;;;;;4.80;2.17;;;14.60;99.90;;;;;;5063397;28;20044;-72
2023/05/21 00:55:06;;;;;;;2.40;1.65;;;14.70;99.90;;;;;;5058539;28;20069;-72
2023/05/21 00:57:33;;;;;;;2.75;2.30;;;14.60;99.90;;;;;;5043072;28;20053;-72
2023/05/21 00:59:59;;;;;;;2.17;1.70;;;14.60;99.90;;;;;;5044638;28;20045;-72
2023/05/21 01:02:24;;;;;;;2.17;1.95;;;14.60;99.90;;;;;;5044524;28;20059;-72
2023/05/21 01:04:53;;;;;;;3.55;2.58;;;14.60;99.90;;;;;;5044308;28;20401;-72
2023/05/21 01:07:19;;;;;;;4.35;1.73;;;14.60;99.90;;;;;;5041789;28;20049;-72
2023/05/21 01:09:44;;;;;;;2.60;1.85;;;14.60;99.90;;;;;;5043608;28;20044;-72
2023/05/21 01:12:16;;;;;;;3.40;1.60;;;14.60;99.90;;;;;;5151964;22;20043;31
2023/05/21 01:14:42;;;;;;;2.65;1.88;;;14.60;99.90;;;;;;4981181;28;20353;-72
2023/05/21 01:17:09;;;;;;;1.83;1.45;;;14.60;99.90;;;;;;4984897;28;20105;-72
2023/05/21 01:19:35;;;;;;;2.30;1.48;;;14.60;99.90;;;;;;4985210;28;20057;-72
2023/05/21 01:22:05;;;;;;;3.08;1.90;;;14.60;99.90;;;;;;4984487;28;20073;-72
2023/05/21 01:24:31;;;;;;;2.72;1.63;;;14.50;99.90;;;;;;4999727;28;20046;-72
2023/05/21 01:26:59;;;;;;;2.42;1.58;;;14.60;99.90;;;;;;4984669;28;20042;-72
2023/05/21 01:29:25;;;;;;;5.20;2.28;;;14.50;99.90;;;;;;4984950;28;20505;-72
2023/05/21 01:32:28;;;;;;;2.80;1.83;;;14.50;99.90;;;;;;4984815;28;20038;-72
2023/05/21 01:35:00;;;;;;;2.00;1.75;;;14.50;99.90;;;;;;4961768;28;20062;-72
2023/05/21 01:37:47;;;;;;;2.35;1.88;;;14.50;99.90;;;;;;4962487;28;20042;-72
2023/05/21 01:40:44;;;;;;;2.42;1.60;;;14.50;99.90;;;;;;4965103;28;20094;-73
2023/05/21 01:43:11;;;;;;;3.72;2.47;;;14.50;99.90;;;;;;4973979;28;20596;-72
2023/05/21 01:45:40;;;;;;;3.13;1.67;;;14.50;99.90;;;;;;4984357;28;20046;-72
2023/05/21 01:48:08;;;;;;;2.90;1.60;;;14.50;99.90;;;;;;4984253;28;20219;-72
2023/05/21 01:50:36;;;;;;;2.65;1.73;;;14.50;99.90;;;;;;4984144;28;20479;-74
2023/05/21 01:53:02;;;;;;;4.28;1.85;;;14.50;99.90;;;;;;4998657;28;20046;-74
2023/05/21 01:55:30;;;;;;;4.28;2.17;;;14.50;99.90;;;;;;4984121;28;20065;-74
2023/05/21 01:57:56;;;;;;;2.33;1.35;;;14.40;99.90;;;;;;4984619;28;20042;-74
2023/05/21 02:00:23;;;;;;;3.40;1.67;;;14.50;99.90;;;;;;4984548;28;20058;-74
2023/05/21 02:02:49;;;;;;;2.38;1.98;;;14.50;99.90;;;;;;4983953;28;20038;-74
2023/05/21 02:05:15;;;;;;;1.70;1.42;;;14.50;99.90;;;;;;4984234;28;20046;-74
2023/05/21 02:07:42;;;;;;;2.38;1.80;;;14.40;99.90;;;;;;4982261;28;20440;-74
2023/05/21 02:10:08;;;;;;;2.58;1.85;;;14.40;99.90;;;;;;4983819;28;20050;-74
2023/05/21 02:12:34;;;;;;;6.75;2.20;;;14.40;99.90;;;;;;4983360;28;20043;-73
2023/05/21 02:15:01;;;;;;;2.28;2.08;;;14.40;99.90;;;;;;4984480;28;20050;-73
2023/05/21 02:17:29;;;;;;;5.25;2.67;;;14.40;99.90;;;;;;4983809;28;20121;-74
2023/05/21 02:19:55;;;;;;;2.78;2.40;;;14.40;99.90;;;;;;4984058;28;20057;-74
2023/05/21 02:22:21;;;;;;;3.08;1.98;;;14.40;99.90;;;;;;4983478;28;20054;-74
2023/05/21 02:24:46;;;;;;;3.33;2.35;;;14.40;99.90;;;;;;4984161;28;20049;-73
2023/05/21 02:27:12;;;;;;;4.18;2.28;;;14.40;99.90;;;;;;4983566;28;20049;-73
2023/05/21 02:29:38;;;;;;;6.43;2.50;;;14.40;99.90;;;;;;4983612;28;20449;-73
2023/05/21 02:32:04;;;;;;;5.50;2.38;;;14.40;99.90;;;;;;4982649;28;20042;-73
2023/05/21 02:34:31;;;;;;;4.22;2.10;;;14.40;99.90;;;;;;4983333;28;20555;-74
2023/05/21 02:36:57;;;;;;;3.03;2.13;;;14.40;99.90;;;;;;4982912;28;20046;-73
2023/05/21 02:39:23;;;;;;;5.93;2.45;;;14.30;99.90;;;;;;4983820;28;20061;-73
2023/05/21 02:41:49;;;;;;;5.22;2.45;;;14.40;99.90;;;;;;4983334;28;20042;-74
2023/05/21 02:44:14;;;;;;;3.53;2.35;;;14.40;99.90;;;;;;4983876;28;20058;-74
2023/05/21 02:46:40;;;;;;;5.10;2.50;;;14.40;99.90;;;;;;4983244;28;20038;-74
2023/05/21 02:49:06;;;;;;;4.72;3.13;;;14.30;99.90;;;;;;4983233;28;20129;-74
2023/05/21 02:51:31;;;;;;;6.45;2.22;;;14.30;99.90;;;;;;4982536;28;20484;-74
2023/05/21 02:53:57;;;;;;;2.53;1.85;;;14.30;99.90;;;;;;4998547;28;20058;-74
2023/05/21 02:56:23;;;;;;;4.45;2.17;;;14.40;99.90;;;;;;4982055;28;20047;-74
2023/05/21 02:58:50;;;;;;;3.58;2.10;;;14.30;99.90;;;;;;4982305;28;20050;-74
2023/05/21 03:01:16;;;;;;;4.57;2.85;;;14.30;99.90;;;;;;4987510;28;20056;-74
2023/05/21 03:03:41;;;;;;;5.35;2.50;;;14.30;99.90;;;;;;4985946;28;20042;-74
2023/05/21 03:06:08;;;;;;;4.25;1.88;;;14.30;99.90;;;;;;4986157;28;20460;-74
2023/05/21 03:08:35;;;;;;;7.70;2.10;;;14.30;99.90;;;;;;4985977;28;20598;-74
2023/05/21 03:11:00;;;;;;;4.43;2.85;;;14.30;99.90;;;;;;4987292;28;20042;-74
2023/05/21 03:13:26;;;;;;;3.90;2.20;;;14.30;99.90;;;;;;4985708;28;20081;-74
2023/05/21 03:15:55;;;;;;;4.60;2.53;;;14.30;99.90;;;;;;4986365;28;20453;-74
2023/05/21 03:18:21;;;;;;;3.03;2.28;;;14.30;99.90;;;;;;4986204;28;20086;-74
2023/05/21 03:20:47;;;;;;;4.22;2.40;;;14.20;99.90;;;;;;4987078;28;20046;-74
2023/05/21 03:23:13;;;;;;;3.42;2.13;;;14.20;99.90;;;;;;4986207;28;20172;-74
2023/05/21 03:25:39;;;;;;;4.85;2.08;;;14.20;99.90;;;;;;4984989;28;20054;-74
2023/05/21 03:28:05;;;;;;;5.30;2.70;;;14.20;99.90;;;;;;4987240;28;20134;-74
2023/05/21 03:30:31;;;;;;;6.05;2.05;;;14.20;99.90;;;;;;4987043;28;20108;-74
2023/05/21 03:32:58;;;;;;;5.20;2.47;;;14.10;99.90;;;;;;4987123;28;20042;-74
2023/05/21 03:35:24;;;;;;;3.45;2.17;;;14.20;99.90;;;;;;4986793;28;20049;-74
2023/05/21 03:37:49;;;;;;;3.65;2.13;;;14.10;99.90;;;;;;4983851;28;20050;-74
2023/05/21 03:40:15;;;;;;;6.20;2.35;;;14.10;99.90;;;;;;4985388;28;20058;-74
2023/05/21 03:42:41;;;;;;;4.75;1.92;;;14.10;99.90;;;;;;4985104;28;20703;-74
2023/05/21 03:45:07;;;;;;;4.05;2.13;;;14.10;99.90;;;;;;4985303;28;20082;-74
2023/05/21 03:47:34;;;;;;;3.45;1.70;;;14.10;99.90;;;;;;4984955;28;20061;-74
2023/05/21 03:50:00;;;;;;;4.55;2.38;;;14.00;99.90;;;;;;4984884;28;20505;-74
2023/05/21 03:52:26;;;;;;;5.78;2.70;;;14.00;99.90;;;;;;4985236;28;20232;-74
2023/05/21 03:54:51;;;;;;;3.38;2.38;;;13.90;99.90;;;;;;4986668;28;20055;-74
2023/05/21 03:57:17;;;;;;;6.53;2.63;;;14.00;99.90;;;;;;4985951;28;20050;-74
2023/05/21 03:59:42;;;;;;;4.20;2.97;;;14.00;99.90;;;;;;4986075;28;20047;-74
2023/05/21 04:02:08;;;;;;;7.22;2.35;;;14.00;99.90;;;;;;4984812;28;20409;-74
2023/05/21 04:04:33;;;;;;;4.00;2.30;;;14.00;99.90;;;;;;4985516;28;20038;-74
2023/05/21 04:06:59;;;;;;;3.40;2.03;;;13.90;99.90;;;;;;5000448;28;20077;-74
2023/05/21 04:09:26;;;;;;;10.20;2.35;;;13.90;99.90;;;;;;4984839;28;20050;-74
2023/05/21 04:11:52;;;;;;;4.38;2.33;;;13.90;99.90;;;;;;4985810;28;20101;-74
2023/05/21 04:14:17;;;;;;;4.70;2.10;;;13.90;99.90;;;;;;4985640;28;20062;-74
2023/05/21 04:16:43;;;;;;;4.30;1.92;;;13.90;99.90;;;;;;4984729;28;20062;-74
2023/05/21 04:19:08;;;;;;;5.68;2.25;;;13.90;99.90;;;;;;4985817;28;20042;-75
2023/05/21 04:21:35;;;;;;;5.43;2.50;;;13.90;99.90;;;;;;4985105;28;20046;-74
2023/05/21 04:24:00;;;;;;;4.63;3.00;;;13.90;99.90;;;;;;4985804;28;20034;-74
2023/05/21 04:26:26;;;;;;;4.82;2.30;;;13.90;99.90;;;;;;4985216;28;20507;-74
2023/05/21 04:28:53;;;;;;;3.70;2.15;;;13.90;99.90;;;;;;4986599;28;20057;-74
2023/05/21 04:31:19;;;;;;;2.75;1.90;;;13.90;99.90;;;;;;4985820;28;20077;-74
2023/05/21 04:33:44;;;;;;;6.32;3.08;;;13.80;99.90;;;;;;4984978;28;20489;-74
2023/05/21 04:36:10;;;;;;;2.75;1.83;;;13.80;99.90;;;;;;4985188;28;20523;-74
2023/05/21 04:38:37;;;;;;;7.70;2.72;;;13.80;99.90;;;;;;4985695;28;20053;-74
2023/05/21 04:41:03;;;;;;;3.28;2.58;;;13.80;99.90;;;;;;4984288;28;20604;-74
2023/05/21 04:43:29;;;;;;;3.40;1.70;;;13.80;99.90;;;;;;4983646;28;20038;-74
2023/05/21 04:45:57;;;;;;;9.02;2.97;;;13.80;99.90;;;;;;4986198;28;20448;-74
2023/05/21 04:48:26;;;;;;;4.13;2.10;;;13.80;99.90;;;;;;4985323;28;20050;-74
2023/05/21 04:50:52;;;;;;;3.95;1.70;;;13.80;99.90;;;;;;4985130;28;20049;-74
2023/05/21 04:53:18;;;;;;;7.43;2.17;;;13.90;99.90;;;;;;4984698;28;20086;-74
2023/05/21 04:55:43;;;;;;;3.22;1.60;;;13.90;99.90;;;;;;4984910;28;20069;-74
2023/05/21 04:58:12;;;;;;;4.00;2.28;;;13.80;99.90;;;;;;4985017;28;20058;-74
2023/05/21 05:00:40;;;;;;;3.33;2.25;;;13.80;99.90;;;;;;4983866;28;20080;-74
2023/05/21 05:03:06;;;;;;;12.65;2.20;;;13.80;99.90;;;;;;4983266;28;20551;-74
2023/05/21 05:05:32;;;;;;;3.03;1.70;;;13.90;99.90;;;;;;4983358;28;20054;-74
2023/05/21 05:07:57;;;;;;;2.88;1.52;;;13.80;99.90;;;;;;4984121;28;20042;-72
2023/05/21 05:10:23;;;;;;;3.75;2.00;;;13.80;99.90;;;;;;4983995;28;20105;-72
2023/05/21 05:12:49;;;;;;;6.03;2.05;;;13.90;99.90;;;;;;4984276;28;20090;-72
2023/05/21 05:15:14;;;;;;;5.97;1.88;;;13.90;99.90;;;;;;4983298;28;20449;-72
2023/05/21 05:17:40;;;;;;;6.60;1.65;;;13.90;99.90;;;;;;4982852;28;20519;-73
2023/05/21 05:20:07;;;;;;;4.10;1.65;;;13.90;99.90;;;;;;5000143;28;20077;-72
2023/05/21 05:22:32;;;;;;;3.92;1.70;;;13.90;99.90;;;;;;4981701;28;20042;-72
2023/05/21 05:24:58;;;;;;;4.90;1.80;;;13.90;99.90;;;;;;4984183;28;20061;-72
2023/05/21 05:27:24;;;;;;;2.38;1.80;;;13.90;99.90;;;;;;4983363;28;20048;-72
2023/05/21 05:29:50;;;;;;;8.93;2.80;;;13.90;99.90;;;;;;4984590;28;20070;-72
2023/05/21 05:32:15;;;;;;;2.03;1.83;;;13.90;99.90;;;;;;4983052;28;20050;-72
2023/05/21 05:34:41;;;;;;;4.93;1.90;;;13.90;99.90;;;;;;4983972;28;20053;-72
2023/05/21 05:37:07;;;;;;;5.78;2.00;;;13.90;99.90;;;;;;4981670;28;20047;-72
2023/05/21 05:39:32;;;;;;;4.55;1.58;;;14.00;99.90;;;;;;4983160;28;20057;-72
2023/05/21 05:41:58;;;;;;;6.05;1.85;;;14.00;99.90;;;;;;4982296;28;20054;-72
2023/05/21 05:44:24;;;;;;;4.03;1.60;;;14.00;99.90;;;;;;4983132;28;20105;-72
2023/05/21 05:46:49;;;;;;;4.28;2.08;;;14.00;99.90;;;;;;4983654;28;20038;-72
2023/05/21 05:49:15;;;;;;;2.65;1.90;;;14.00;99.90;;;;;;4982895;28;20615;-72
2023/05/21 05:51:41;;;;;;;7.25;2.10;;;14.00;99.90;;;;;;4983088;28;20731;-73
2023/05/21 05:54:07;;;;;;;8.05;2.20;;;14.00;99.90;;;;;;4983959;28;20073;-72
2023/05/21 05:56:32;;;;;;;3.30;1.85;;;14.10;99.90;;;;;;4983265;28;20177;-72
2023/05/21 05:58:58;;;;;;;3.08;1.85;;;14.10;99.90;;;;;;4984066;28;20458;-72
2023/05/21 06:01:25;;;;;;;5.72;1.77;;;14.10;99.90;;;;;;4984154;28;20448;-72
2023/05/21 06:03:51;;;;;;;3.28;1.98;;;14.00;99.90;;;;;;4982357;28;20060;-72
2023/05/21 06:06:17;;;;;;;6.03;1.40;;;14.00;99.90;;;;;;4982922;28;20050;-72
2023/05/21 06:08:42;;;;;;;4.07;2.05;;;14.00;99.90;;;;;;4982456;28;20055;-72
2023/05/21 06:11:09;;;;;;;4.07;1.90;;;14.00;99.90;;;;;;4966306;28;20042;-72
2023/05/21 06:13:35;;;;;;;3.47;1.40;;;14.00;99.90;;;;;;4983089;28;20054;-72
2023/05/21 06:16:00;;;;;;;3.40;2.03;;;14.00;99.90;;;;;;4998701;28;20052;-72
2023/05/21 06:18:26;;;;;;;3.83;2.05;;;14.10;99.90;;;;;;4983370;28;20041;-72
2023/05/21 06:20:52;;;;;;;4.22;1.83;;;14.10;99.90;;;;;;4983307;28;20096;-72
2023/05/21 06:23:17;;;;;;;3.28;1.80;;;14.10;99.90;;;;;;4982007;28;20108;-72
2023/05/21 06:25:43;;;;;;;4.80;1.92;;;14.10;99.90;;;;;;4983061;28;20038;-72
2023/05/21 06:28:08;;;;;;;3.63;2.00;;;14.10;99.90;;;;;;4982049;28;20516;-72
2023/05/21 06:30:34;;;;;;;3.38;1.77;;;14.10;99.90;;;;;;4981565;28;20038;-72
2023/05/21 06:33:00;;;;;;;2.88;1.73;;;14.10;99.90;;;;;;4983087;28;20116;-72
2023/05/21 06:35:25;;;;;;;7.82;2.38;;;14.10;99.90;;;;;;4982713;28;20069;-72
2023/05/21 06:37:51;;;;;;;3.08;2.40;;;14.10;99.90;;;;;;4981646;28;20058;-72
2023/05/21 06:40:16;;;;;;;3.22;2.05;;;14.10;99.90;;;;;;4983417;28;20039;-72
2023/05/21 06:42:42;;;;;;;3.22;2.10;;;14.20;99.90;;;;;;4965568;28;20046;-72
2023/05/21 06:45:08;;;;;;;6.57;2.00;;;14.20;99.90;;;;;;4981558;28;20046;-72
2023/05/21 06:47:34;;;;;;;2.75;2.13;;;14.30;99.90;;;;;;4983310;28;20046;-72
2023/05/21 06:49:59;;;;;;;4.78;1.85;;;14.30;99.90;;;;;;4982236;28;20056;-72
2023/05/21 06:52:27;;;;;;;3.45;1.95;;;14.30;99.90;;;;;;4981274;28;20061;-73
2023/05/21 06:54:53;;;;;;;6.63;1.67;;;14.30;99.90;;;;;;4980742;28;20081;-72
2023/05/21 06:57:19;;;;;;;4.97;1.67;;;14.40;99.90;;;;;;4974768;28;20067;-74
2023/05/21 06:59:44;;;;;;;4.10;2.38;;;14.40;99.90;;;;;;4981773;28;20054;-74
2023/05/21 07:02:10;;;;;;;3.70;2.47;;;14.50;99.90;;;;;;4983513;28;20043;-74
2023/05/21 07:04:35;;;;;;;6.15;2.17;;;14.60;99.90;;;;;;4981343;28;20047;-74
2023/05/21 07:07:03;;;;;;;4.20;2.08;;;14.60;99.90;;;;;;4981031;28;20440;-74
2023/05/21 07:09:29;;;;;;;5.35;1.90;;;14.60;99.90;;;;;;4981811;28;20054;-74
2023/05/21 07:11:54;;;;;;;4.60;1.60;;;14.70;99.90;;;;;;4983080;28;20096;-74
2023/05/21 07:14:20;;;;;;;3.78;2.50;;;14.70;99.90;;;;;;4982265;28;20417;-74
2023/05/21 07:16:46;;;;;;;3.53;2.08;;;14.80;99.90;;;;;;4980766;28;20413;-74
2023/05/21 07:19:11;;;;;;;3.42;2.00;;;14.80;99.90;;;;;;4980907;28;20125;-75
2023/05/21 07:21:37;;;;;;;6.10;2.47;;;14.90;99.90;;;;;;4980695;28;20053;-75
2023/05/21 07:24:02;;;;;;;4.28;1.83;;;14.90;99.90;;;;;;4982365;28;20299;-75
2023/05/21 07:26:28;;;;;;;2.78;1.77;;;14.90;99.90;;;;;;4982280;28;20409;-75
2023/05/21 07:28:54;;;;;;;5.70;1.80;;;15.00;99.90;;;;;;4982570;28;20050;-74
2023/05/21 07:31:19;;;;;;;3.70;1.90;;;15.00;99.90;;;;;;4982891;28;20362;-74
2023/05/21 07:33:45;;;;;;;4.30;2.00;;;15.10;99.90;;;;;;4980796;28;21551;-73
2023/05/21 07:36:10;;;;;;;7.15;2.95;;;15.20;99.90;;;;;;4982311;28;20123;-75
2023/05/21 07:38:36;;;;;;;5.00;2.03;;;15.30;99.90;;;;;;4980696;28;20409;-76
2023/05/21 07:41:02;;;;;;;3.95;2.10;;;15.30;99.90;;;;;;4981632;28;20042;-76
2023/05/21 07:43:28;;;;;;;3.70;2.00;;;15.30;99.90;;;;;;4981456;28;20049;-73
2023/05/21 07:45:53;;;;;;;2.80;1.63;;;15.40;99.90;;;;;;4983213;28;20062;-73
2023/05/21 07:48:19;;;;;;;6.15;2.38;;;15.30;99.90;;;;;;4999262;28;20049;-74
2023/05/21 07:50:48;;;;;;;4.57;1.73;;;15.40;99.90;;;;;;4983694;28;20038;-75
2023/05/21 07:53:13;;;;;;;1.98;1.73;;;15.40;99.90;;;;;;4986192;28;20377;-75
2023/05/21 07:55:46;;;;;;;4.55;2.42;;;15.40;99.90;;;;;;4985644;28;20049;-74
2023/05/21 07:58:19;;;;;;;3.70;2.35;;;15.50;99.90;;;;;;4986886;28;20046;-74
2023/05/21 08:00:49;;;;;;;4.60;2.47;;;15.50;99.90;;;;;;4974904;28;20034;-75
2023/05/21 08:03:16;;;;;;;2.92;1.70;;;15.50;99.90;;;;;;4984095;28;20050;-74
2023/05/21 08:05:47;;;;;;;3.67;1.63;;;15.50;99.90;;;;;;4985014;28;20444;-75
2023/05/21 08:08:13;;;;;;;3.75;1.80;;;15.50;99.90;;;;;;4986484;28;20078;-74
2023/05/21 08:10:39;;;;;;;2.70;1.75;;;15.60;99.90;;;;;;4984068;28;20043;-75
2023/05/21 08:13:05;;;;;;;3.80;1.80;;;15.60;99.90;;;;;;4985909;28;20065;-73
2023/05/21 08:15:31;;;;;;;3.30;1.95;;;15.60;99.90;;;;;;5000738;28;20061;-74
2023/05/21 08:17:56;;;;;;;3.63;2.42;;;15.70;99.90;;;;;;4986105;28;20026;-74
2023/05/21 08:20:22;;;;;;;7.18;2.08;;;15.70;99.90;;;;;;4983754;28;20084;-75
2023/05/21 08:22:48;;;;;;;4.38;2.40;;;15.60;99.90;;;;;;4982958;28;20046;-75
2023/05/21 08:25:14;;;;;;;3.65;2.13;;;15.60;99.90;;;;;;4984530;28;20046;-75
2023/05/21 08:27:40;;;;;;;3.65;2.13;;;15.60;99.90;;;;;;4984818;28;20034;-74
2023/05/21 08:30:07;;;;;;;4.80;2.30;;;15.60;99.90;;;;;;4983759;28;20496;-75
2023/05/21 08:32:33;;;;;;;4.25;1.80;;;15.70;99.90;;;;;;4975681;28;20034;-75
2023/05/21 08:34:59;;;;;;;2.42;1.30;;;15.70;99.90;;;;;;4984345;28;20239;-74
2023/05/21 08:37:25;;;;;;;2.90;1.60;;;15.70;99.90;;;;;;4983971;28;20043;-73
2023/05/21 08:39:50;;;;;;;4.25;1.83;;;15.70;99.90;;;;;;4985674;28;20056;-74
2023/05/21 08:42:35;;;;;;;2.33;1.70;;;15.70;99.90;;;;;;4985518;28;20093;-74
2023/05/21 08:45:04;;;;;;;4.30;2.28;;;15.70;99.90;;;;;;4984609;28;20146;-74
2023/05/21 08:47:34;;;;;;;3.05;1.50;;;15.80;99.90;;;;;;4983918;28;20050;-75
2023/05/21 08:50:06;;;;;;;5.30;1.63;;;15.80;99.90;;;;;;4983130;28;20046;-77
2023/05/21 08:52:32;;;;;;;2.67;1.70;;;15.80;99.90;;;;;;4971601;28;20512;-75
2023/05/21 08:54:58;;;;;;;3.00;2.35;;;15.80;99.90;;;;;;4985524;28;20125;-74
2023/05/21 08:57:26;;;;;;;4.13;1.75;;;15.80;99.90;;;;;;4984439;28;20042;-74
2023/05/21 08:59:51;;;;;;;1.73;1.20;;;15.90;99.90;;;;;;4984578;28;20096;-74
2023/05/21 09:02:18;;;;;;;12.35;1.83;;;15.90;99.90;;;;;;5000065;28;20046;-75
2023/05/21 09:04:48;;;;;;;2.67;1.15;;;15.90;99.90;;;;;;4984709;28;20586;-74
2023/05/21 09:07:14;;;;;;;3.45;1.70;;;15.90;99.90;;;;;;4984957;28;20042;-74
2023/05/21 09:10:17;;;;;;;3.63;1.60;;;15.90;99.90;;;;;;4983055;28;20034;-75
2023/05/21 09:12:43;;;;;;;3.55;1.70;;;15.90;99.90;;;;;;4957203;28;20142;-74
2023/05/21 09:15:09;;;;;;;2.53;1.30;;;16.00;99.90;;;;;;4961325;28;20137;-74
2023/05/21 09:17:35;;;;;;;2.33;1.60;;;16.00;99.90;;;;;;4980746;28;20039;-74
2023/05/21 09:20:16;;;;;;;4.53;2.03;;;16.00;99.90;;;;;;4983886;28;20050;-74
2023/05/21 09:22:43;;;;;;;2.90;1.65;;;16.00;99.90;;;;;;4983030;28;20050;-74
2023/05/21 09:25:23;;;;;;;4.97;2.50;;;16.00;99.90;;;;;;4983465;28;20081;-74
2023/05/21 09:27:50;;;;;;;1.80;1.70;;;16.00;99.90;;;;;;4984797;28;20412;-74
2023/05/21 09:30:17;;;;;;;3.92;1.85;;;16.00;99.90;;;;;;4984829;28;20046;-74
2023/05/21 09:32:44;;;;;;;2.78;1.73;;;16.00;99.90;;;;;;4983063;28;20108;-74
2023/05/21 09:35:11;;;;;;;2.40;1.70;;;16.00;99.90;;;;;;4973974;28;20133;-74
2023/05/21 09:37:42;;;;;;;3.08;1.83;;;16.10;99.90;;;;;;4979800;28;20105;-74
2023/05/21 09:40:21;;;;;;;5.28;1.70;;;16.10;99.90;;;;;;4978878;28;20134;-74
2023/05/21 09:42:48;;;;;;;3.95;2.05;;;16.10;99.90;;;;;;4991703;28;20077;-74
2023/05/21 09:45:18;;;;;;;4.57;2.03;;;16.10;99.90;;;;;;4983492;28;20046;-73
2023/05/21 09:47:45;;;;;;;6.32;1.88;;;16.10;99.90;;;;;;4982654;28;20050;-74
2023/05/21 09:50:11;;;;;;;6.43;2.20;;;16.10;99.90;;;;;;4967024;28;20172;-75
2023/05/21 09:52:38;;;;;;;4.80;1.85;;;16.00;99.90;;;;;;4983269;28;20100;-75
2023/05/21 09:55:11;;;;;;;4.22;2.00;;;16.00;99.90;;;;;;4998987;28;20092;-75
2023/05/21 09:57:44;;;;;;;2.80;1.75;;;16.10;99.90;;;;;;4982983;28;20043;-75
2023/05/21 10:00:26;;;;;;;3.50;1.50;;;16.10;99.90;;;;;;4984155;28;20054;-75
2023/05/21 10:02:59;;;;;;;3.13;2.10;;;16.20;99.90;;;;;;4998113;28;20050;-75
2023/05/21 10:05:29;;;;;;;4.65;2.08;;;16.20;99.90;;;;;;4979952;28;20141;-74
2023/05/21 10:08:03;;;;;;;2.85;1.70;;;16.30;99.90;;;;;;4979695;28;20070;-76
2023/05/21 10:10:30;;;;;;;2.55;1.88;;;16.30;99.90;;;;;;4966689;28;20707;-74
2023/05/21 10:13:08;;;;;;;2.83;2.25;;;16.40;99.90;;;;;;4952780;28;20054;-75
2023/05/21 10:15:54;;;;;;;2.35;1.42;;;16.40;99.90;;;;;;4951067;28;20066;-74
2023/05/21 10:18:22;;;;;;;2.20;1.25;;;16.40;99.90;;;;;;4957828;28;20085;-74
2023/05/21 10:20:48;;;;;;;3.90;1.55;;;16.50;99.90;;;;;;4943620;28;20525;-73
2023/05/21 10:23:14;;;;;;;2.88;1.60;;;16.50;99.90;;;;;;4966359;28;20142;-74
2023/05/21 10:25:41;;;;;;;4.00;1.77;;;16.50;99.90;;;;;;4946262;28;20505;-73
2023/05/21 10:28:06;;;;;;;5.10;1.40;;;16.40;99.90;;;;;;4954084;28;20061;-77
2023/05/21 10:30:34;;;;;;;1.95;1.42;;;16.40;99.90;;;;;;4953750;28;20043;-75
2023/05/21 10:33:02;;;;;;;2.60;2.35;;;16.40;99.90;;;;;;4943764;28;20142;-74
2023/05/21 10:35:29;;;;;;;4.78;1.63;;;16.40;99.90;;;;;;4941266;29;20057;-74
2023/05/21 10:37:57;;;;;;;2.42;1.67;;;16.40;99.90;;;;;;4944799;28;20056;-73
2023/05/21 10:40:23;;;;;;;2.42;1.40;;;16.40;99.90;;;;;;4943341;28;20094;-74
2023/05/21 10:43:05;;;;;;;4.72;2.08;;;16.40;99.90;;;;;;4955938;28;20048;-73
2023/05/21 10:45:58;;;;;;;2.17;1.90;;;16.40;99.90;;;;;;4950436;28;20061;-74
2023/05/21 10:48:55;;;;;;;4.53;1.42;;;16.40;99.90;;;;;;4945640;28;20143;-75
2023/05/21 10:51:27;;;;;;;8.30;1.60;;;16.40;99.90;;;;;;4942501;28;20458;-75
2023/05/21 10:54:21;;;;;;;5.63;1.23;;;16.40;99.90;;;;;;4944851;28;20513;-75
2023/05/21 10:56:58;;;;;;;4.50;1.92;;;16.40;99.90;;;;;;4942839;29;20047;-75
2023/05/21 10:59:45;;;;;;;3.60;1.45;;;16.40;99.90;;;;;;4945016;28;20071;-74
2023/05/21 11:02:13;;;;;;;3.67;1.70;;;16.40;99.90;;;;;;4945005;28;20047;-74
2023/05/21 11:04:43;;;;;;;1.58;1.40;;;16.40;99.90;;;;;;4940614;29;20047;-74
2023/05/21 11:07:11;;;;;;;2.67;1.63;;;16.40;99.90;;;;;;4942413;29;20039;-74
2023/05/21 11:09:37;;;;;;;3.17;1.52;;;16.40;99.90;;;;;;4951176;28;20051;-74
2023/05/21 11:12:03;;;;;;;6.65;1.98;;;16.40;99.90;;;;;;4944428;28;20095;-75
2023/05/21 11:14:39;;;;;;;4.85;1.80;;;16.40;99.90;;;;;;4943598;28;20052;-73
2023/05/21 11:17:37;;;;;;;2.88;2.05;;;16.40;99.90;;;;;;4959178;28;20054;-75
2023/05/21 11:20:12;;;;;;;3.05;1.98;;;16.40;99.90;;;;;;4955117;28;20051;-76
2023/05/21 11:22:37;;;;;;;4.35;2.38;;;16.40;99.90;;;;;;4946243;29;20129;-75
2023/05/21 11:25:03;;;;;;;5.03;2.90;;;16.50;99.90;;;;;;4948585;28;20083;-74
2023/05/21 11:27:31;;;;;;;4.93;1.98;;;16.50;99.90;;;;;;4947660;28;20043;-75
2023/05/21 11:29:56;;;;;;;4.43;1.58;;;16.40;99.90;;;;;;4946707;29;20047;-75
2023/05/21 11:32:23;;;;;;;7.70;2.28;;;16.50;99.90;;;;;;4950871;28;20524;-74
2023/05/21 11:34:49;;;;;;;1.80;1.65;;;16.50;99.90;;;;;;4941700;29;20066;-75
2023/05/21 11:37:23;;;;;;;4.53;2.50;;;16.50;99.90;;;;;;4947142;28;20045;-76
2023/05/21 11:39:50;;;;;;;4.18;1.70;;;16.50;99.90;;;;;;4947539;28;20055;-76
2023/05/21 11:42:38;;;;;;;2.85;2.10;;;16.60;99.90;;;;;;4947973;28;20750;-75
2023/05/21 11:45:04;;;;;;;3.47;1.83;;;16.50;99.90;;;;;;4930771;29;20122;-73
2023/05/21 11:47:31;;;;;;;3.97;2.00;;;16.60;99.90;;;;;;4948090;28;20043;-74
2023/05/21 11:49:59;;;;;;;4.65;2.13;;;16.50;99.90;;;;;;4978163;28;20053;-74
2023/05/21 11:52:27;;;;;;;3.13;1.77;;;16.60;99.90;;;;;;4947154;29;20808;-74
2023/05/21 11:54:57;;;;;;;3.85;2.30;;;16.60;99.90;;;;;;4948466;28;20043;-75
2023/05/21 11:57:29;;;;;;;5.38;3.00;;;16.60;99.90;;;;;;4948609;28;20051;-74
2023/05/21 11:59:57;;;;;;;4.95;2.08;;;16.60;99.90;;;;;;4962376;28;20039;-73
2023/05/21 12:02:25;;;;;;;4.10;2.13;;;16.60;99.90;;;;;;4947566;28;20138;-73
2023/05/21 12:04:50;;;;;;;3.70;1.98;;;16.60;99.90;;;;;;4977445;28;20532;-74
2023/05/21 12:07:18;;;;;;;3.88;2.15;;;16.70;99.90;;;;;;4977377;28;20133;-75
2023/05/21 12:09:48;;;;;;;3.45;1.27;;;16.70;99.90;;;;;;4929593;29;20094;-75
2023/05/21 12:12:16;;;;;;;2.65;1.73;;;16.70;99.90;;;;;;4947197;28;20039;-75
2023/05/21 12:14:46;;;;;;;4.00;1.58;;;16.70;99.90;;;;;;4945248;29;20183;-74
2023/05/21 12:17:15;;;;;;;5.85;2.05;;;16.70;99.90;;;;;;4973526;28;20047;-75
2023/05/21 12:19:41;;;;;;;4.35;2.33;;;16.70;99.90;;;;;;4945784;29;20130;-75
2023/05/21 12:22:07;;;;;;;3.97;1.58;;;16.70;99.90;;;;;;4928479;29;20050;-75
2023/05/21 12:24:34;;;;;;;5.50;3.17;;;16.70;99.90;;;;;;4947353;28;20043;-74
2023/05/21 12:27:02;;;;;;;3.15;2.00;;;16.80;99.90;;;;;;4947559;28;20043;-74
2023/05/21 12:29:30;;;;;;;4.75;1.58;;;16.80;99.90;;;;;;4947300;28;20043;-74
2023/05/21 12:32:00;;;;;;;4.75;1.63;;;16.80;99.90;;;;;;4962260;28;20217;-75
2023/05/21 12:34:38;;;;;;;4.63;1.48;;;16.80;99.90;;;;;;4969970;28;20937;-75
2023/05/21 12:37:05;;;;;;;2.85;1.70;;;16.80;99.90;;;;;;4968617;28;20126;-75
2023/05/21 12:39:32;;;;;;;3.80;1.65;;;16.80;99.90;;;;;;4961392;28;20074;-74
2023/05/21 12:41:57;;;;;;;6.53;2.65;;;16.80;99.90;;;;;;4942755;28;20048;-77
2023/05/21 12:44:28;;;;;;;4.10;2.15;;;16.80;99.90;;;;;;4948021;28;20052;-76
2023/05/21 12:46:53;;;;;;;4.85;1.85;;;16.80;99.90;;;;;;4945934;29;20143;-73
2023/05/21 12:49:39;;;;;;;3.65;2.13;;;16.80;99.90;;;;;;4945116;28;20374;-74
2023/05/21 12:52:08;;;;;;;3.92;1.70;;;16.90;99.90;;;;;;4943611;28;20170;-72